createdAt,value
2019-03-16T00:02:21.964Z,97.30
2019-03-16T00:04:50.397Z,97.20
2019-03-16T00:07:32.211Z,97.20
2019-03-16T00:09:49.013Z,97.20
2019-03-16T00:12:17.782Z,97.10
2019-03-16T00:14:46.246Z,96.90
2019-03-16T00:17:23.044Z,96.90
2019-03-16T00:19:44.847Z,97.40
2019-03-16T00:22:13.276Z,97.40
2019-03-16T00:24:41.720Z,97.50
2019-03-16T00:27:10.497Z,97.60
2019-03-16T00:29:38.965Z,97.40
2019-03-16T00:32:13.358Z,97.10
2019-03-16T00:34:37.704Z,96.60
2019-03-16T00:37:06.204Z,96.80
2019-03-16T00:39:34.661Z,96.40
2019-03-16T00:42:03.081Z,96.70
2019-03-16T00:44:31.536Z,96.60
2019-03-16T00:46:59.998Z,96.50
2019-03-16T00:49:28.459Z,96.50
2019-03-16T00:51:56.888Z,96.40
2019-03-16T00:54:25.339Z,96.50
2019-03-16T00:56:53.778Z,96.10
2019-03-16T00:59:22.301Z,96.20
2019-03-16T01:01:50.738Z,96.30
2019-03-16T01:04:19.183Z,96.20
2019-03-16T01:06:47.630Z,95.90
2019-03-16T01:09:16.394Z,95.90
2019-03-16T01:11:45.180Z,95.90
2019-03-16T01:14:13.631Z,95.60
2019-03-16T01:16:42.444Z,95.60
2019-03-16T01:19:10.881Z,95.70
2019-03-16T01:21:39.708Z,96.20
2019-03-16T01:24:08.140Z,96.10
2019-03-16T01:26:36.594Z,96.60
2019-03-16T01:29:05.024Z,97.00
2019-03-16T01:31:33.476Z,96.80
2019-03-16T01:34:01.914Z,96.70
2019-03-16T01:36:30.365Z,96.90
2019-03-16T01:38:58.805Z,97.20
2019-03-16T01:41:27.278Z,97.20
2019-03-16T01:43:55.978Z,97.20
2019-03-16T01:46:24.445Z,97.50
2019-03-16T01:48:52.878Z,97.20
2019-03-16T01:51:21.526Z,97.50
2019-03-16T01:53:49.960Z,97.40
2019-03-16T01:56:18.418Z,97.60
2019-03-16T01:58:46.841Z,97.50
2019-03-16T02:01:15.313Z,97.70
2019-03-16T02:03:43.757Z,97.60
2019-03-16T02:06:12.201Z,97.70
2019-03-16T02:08:40.639Z,97.60
2019-03-16T02:11:09.103Z,97.70
2019-03-16T02:13:37.546Z,97.60
2019-03-16T02:16:11.364Z,97.70
2019-03-16T02:18:36.139Z,97.90
2019-03-16T02:21:04.663Z,97.70
2019-03-16T02:23:33.091Z,97.80
2019-03-16T02:26:01.568Z,98.20
2019-03-16T02:28:29.995Z,98.30
2019-03-16T02:30:58.808Z,98.10
2019-03-16T02:33:27.239Z,98.30
2019-03-16T02:35:55.668Z,98.40
2019-03-16T02:38:24.432Z,98.20
2019-03-16T02:40:52.881Z,98.40
2019-03-16T02:43:21.310Z,98.30
2019-03-16T02:45:49.780Z,98.30
2019-03-16T02:48:18.221Z,98.10
2019-03-16T02:50:46.658Z,98.10
2019-03-16T02:53:15.634Z,97.90
2019-03-16T02:55:45.388Z,97.80
2019-03-16T02:58:13.859Z,98.00
2019-03-16T03:00:49.709Z,97.90
2019-03-16T03:03:29.516Z,97.90
2019-03-16T03:05:48.371Z,98.00
2019-03-16T03:08:16.858Z,97.90
2019-03-16T03:10:45.350Z,97.70
2019-03-16T03:13:14.468Z,97.60
2019-03-16T03:15:43.394Z,97.90
2019-03-16T03:18:11.839Z,97.40
2019-03-16T03:20:40.300Z,97.00
2019-03-16T03:23:08.815Z,96.70
2019-03-16T03:25:37.310Z,97.00
2019-03-16T03:28:05.741Z,96.80
2019-03-16T03:30:34.214Z,96.70
2019-03-16T03:33:02.665Z,96.80
2019-03-16T03:35:31.462Z,96.70
2019-03-16T03:37:59.903Z,96.80
2019-03-16T03:40:28.340Z,97.00
2019-03-16T03:42:56.783Z,96.80
2019-03-16T03:45:25.575Z,97.20
2019-03-16T03:47:54.015Z,97.30
2019-03-16T03:50:22.448Z,96.70
2019-03-16T03:52:50.926Z,97.00
2019-03-16T03:55:19.360Z,97.10
2019-03-16T03:57:48.173Z,96.80
2019-03-16T04:00:18.339Z,96.90
2019-03-16T04:02:47.065Z,97.00
2019-03-16T04:05:15.514Z,96.70
2019-03-16T04:07:49.831Z,97.00
2019-03-16T04:10:18.312Z,96.40
2019-03-16T04:12:47.131Z,96.10
2019-03-16T04:15:15.672Z,95.80
2019-03-16T04:17:44.116Z,95.50
2019-03-16T04:20:14.988Z,95.60
2019-03-16T04:22:43.727Z,95.30
2019-03-16T04:25:12.168Z,95.00
2019-03-16T04:27:40.715Z,95.20
2019-03-16T04:30:11.344Z,94.70
2019-03-16T04:32:39.790Z,94.60
2019-03-16T04:35:08.578Z,94.50
2019-03-16T04:37:37.376Z,94.90
2019-03-16T04:40:08.322Z,95.00
2019-03-16T04:42:36.783Z,95.30
2019-03-16T04:45:07.925Z,95.40
2019-03-16T04:47:36.358Z,95.70
2019-03-16T04:50:10.108Z,96.00
2019-03-16T04:52:38.588Z,96.20
2019-03-16T04:55:08.892Z,96.40
2019-03-16T04:57:37.331Z,96.50
2019-03-16T05:00:11.917Z,96.60
2019-03-16T05:02:40.367Z,96.60
2019-03-16T05:05:08.978Z,96.60
2019-03-16T05:07:37.432Z,96.90
2019-03-16T05:10:10.655Z,96.90
2019-03-16T05:12:39.183Z,96.90
2019-03-16T05:15:09.059Z,96.90
2019-03-16T05:17:37.497Z,96.90
2019-03-16T05:20:12.580Z,96.80
2019-03-16T05:22:41.041Z,97.00
2019-03-16T05:25:11.091Z,97.10
2019-03-16T05:27:39.936Z,97.20
2019-03-16T05:30:11.586Z,97.30
2019-03-16T05:32:40.043Z,97.40
2019-03-16T05:35:09.510Z,96.90
2019-03-16T05:37:37.966Z,96.80
2019-03-16T05:40:08.801Z,96.80
2019-03-16T05:42:37.238Z,97.10
2019-03-16T05:45:09.506Z,97.00
2019-03-16T05:47:37.967Z,96.90
2019-03-16T05:50:09.249Z,96.60
2019-03-16T05:52:37.693Z,96.10
2019-03-16T05:55:06.413Z,95.80
2019-03-16T05:57:34.836Z,96.00
2019-03-16T06:00:04.655Z,96.10
2019-03-16T06:02:33.110Z,95.90
2019-03-16T06:05:10.384Z,95.30
2019-03-16T06:07:31.695Z,94.80
2019-03-16T06:10:00.369Z,94.60
2019-03-16T06:12:28.967Z,94.20
2019-03-16T06:14:57.473Z,94.60
2019-03-16T06:17:25.937Z,94.50
2019-03-16T06:19:54.393Z,93.90
2019-03-16T06:22:22.847Z,93.90
2019-03-16T06:24:51.313Z,94.10
2019-03-16T06:27:19.762Z,93.80
2019-03-16T06:29:48.219Z,93.80
2019-03-16T06:32:16.668Z,94.00
2019-03-16T06:34:45.129Z,93.80
2019-03-16T06:37:13.545Z,93.50
2019-03-16T06:39:41.965Z,93.70
2019-03-16T06:42:10.412Z,93.50
2019-03-16T06:44:38.856Z,93.60
2019-03-16T06:47:07.309Z,93.60
2019-03-16T06:49:35.765Z,93.70
2019-03-16T06:52:04.205Z,94.00
2019-03-16T06:54:32.643Z,94.10
2019-03-16T06:57:01.081Z,93.90
2019-03-16T06:59:29.537Z,93.60
2019-03-16T07:01:57.983Z,92.80
2019-03-16T07:04:28.010Z,92.90
2019-03-16T07:06:56.492Z,93.10
2019-03-16T07:09:25.307Z,92.70
2019-03-16T07:11:53.743Z,92.50
2019-03-16T07:14:22.283Z,92.80
2019-03-16T07:17:01.305Z,92.60
2019-03-16T07:19:20.931Z,92.90
2019-03-16T07:21:49.355Z,92.70
2019-03-16T07:24:17.799Z,93.00
2019-03-16T07:26:46.724Z,92.70
2019-03-16T07:29:15.182Z,92.70
2019-03-16T07:31:43.615Z,92.40
2019-03-16T07:34:12.069Z,92.10
2019-03-16T07:36:40.514Z,91.70
2019-03-16T07:39:08.973Z,90.60
2019-03-16T07:41:37.420Z,90.10
2019-03-16T07:44:05.858Z,90.70
2019-03-16T07:46:34.290Z,89.90
2019-03-16T07:49:02.774Z,90.20
2019-03-16T07:51:31.240Z,90.70
2019-03-16T07:53:59.701Z,90.20
2019-03-16T07:56:28.410Z,90.30
2019-03-16T07:58:56.859Z,90.20
2019-03-16T08:01:25.286Z,90.90
2019-03-16T08:03:53.754Z,90.70
2019-03-16T08:06:22.192Z,90.60
2019-03-16T08:08:50.651Z,89.70
2019-03-16T08:11:19.090Z,90.10
2019-03-16T08:13:47.540Z,89.70
2019-03-16T08:16:16.000Z,89.40
2019-03-16T08:18:44.430Z,89.90
2019-03-16T08:21:27.250Z,89.80
2019-03-16T08:23:55.674Z,89.30
2019-03-16T08:26:24.114Z,88.60
2019-03-16T08:28:52.551Z,88.30
2019-03-16T08:31:27.906Z,88.30
2019-03-16T08:33:56.351Z,88.30
2019-03-16T08:36:24.820Z,88.20
2019-03-16T08:38:53.249Z,88.30
2019-03-16T08:41:21.726Z,88.70
2019-03-16T08:43:50.177Z,88.90
2019-03-16T08:46:18.950Z,89.20
2019-03-16T08:48:47.742Z,89.70
2019-03-16T08:51:16.522Z,89.50
2019-03-16T08:53:44.956Z,89.20
2019-03-16T08:56:13.392Z,89.60
2019-03-16T08:58:41.834Z,89.50
2019-03-16T09:01:10.287Z,90.00
2019-03-16T09:03:43.700Z,89.70
2019-03-16T09:06:08.979Z,89.80
2019-03-16T09:08:37.414Z,89.30
2019-03-16T09:11:05.858Z,89.20
2019-03-16T09:13:34.275Z,89.10
2019-03-16T09:16:02.697Z,88.80
2019-03-16T09:18:31.156Z,88.80
2019-03-16T09:20:59.577Z,88.00
2019-03-16T09:23:28.038Z,88.20
2019-03-16T09:25:56.494Z,87.20
2019-03-16T09:28:24.923Z,86.80
2019-03-16T09:30:56.318Z,86.70
2019-03-16T09:33:23.680Z,86.60
2019-03-16T09:35:52.550Z,86.60
2019-03-16T09:38:20.970Z,88.00
2019-03-16T09:40:49.442Z,88.70
2019-03-16T09:43:17.889Z,90.10
2019-03-16T09:45:46.405Z,90.80
2019-03-16T09:48:14.855Z,91.70
2019-03-16T09:50:43.314Z,91.70
2019-03-16T09:53:11.748Z,91.00
2019-03-16T09:55:40.579Z,91.20
2019-03-16T09:58:09.058Z,90.80
2019-03-16T10:00:37.480Z,91.00
2019-03-16T10:03:05.930Z,90.80
2019-03-16T10:05:34.697Z,90.40
2019-03-16T10:08:03.134Z,89.80
2019-03-16T10:10:31.583Z,89.70
2019-03-16T10:13:00.035Z,90.20
2019-03-16T10:15:28.506Z,89.30
2019-03-16T10:17:56.970Z,89.20
2019-03-16T10:20:25.409Z,89.30
2019-03-16T10:22:54.368Z,88.40
2019-03-16T10:25:22.794Z,88.00
2019-03-16T10:27:51.253Z,88.30
2019-03-16T10:30:19.700Z,87.10
2019-03-16T10:32:48.138Z,85.50
2019-03-16T10:35:16.656Z,86.00
2019-03-16T10:37:45.107Z,87.20
2019-03-16T10:40:14.301Z,86.30
2019-03-16T10:42:42.735Z,85.90
2019-03-16T10:45:12.220Z,86.70
2019-03-16T10:47:40.891Z,86.70
2019-03-16T10:50:11.340Z,85.50
2019-03-16T10:52:39.858Z,86.00
2019-03-16T10:55:08.774Z,84.20
2019-03-16T10:57:37.289Z,83.60
2019-03-16T11:00:09.144Z,83.80
2019-03-16T11:02:37.576Z,82.00
2019-03-16T11:05:06.842Z,81.40
2019-03-16T11:07:35.309Z,81.60
2019-03-16T11:10:09.191Z,80.80
2019-03-16T11:12:37.639Z,80.70
2019-03-16T11:15:09.138Z,79.80
2019-03-16T11:17:37.609Z,81.10
2019-03-16T11:20:11.327Z,80.00
2019-03-16T11:22:39.796Z,79.80
2019-03-16T11:25:08.714Z,79.70
2019-03-16T11:27:37.184Z,79.70
2019-03-16T11:30:11.479Z,79.70
2019-03-16T11:32:39.923Z,79.90
2019-03-16T11:35:10.385Z,79.40
2019-03-16T11:37:38.835Z,80.00
2019-03-16T11:40:15.542Z,79.50
2019-03-16T11:42:44.025Z,79.10
2019-03-16T11:45:13.028Z,78.80
2019-03-16T11:47:41.493Z,78.10
2019-03-16T11:50:11.173Z,78.40
2019-03-16T11:52:39.894Z,77.60
2019-03-16T11:55:09.763Z,77.20
2019-03-16T11:57:38.222Z,76.70
2019-03-16T12:00:09.727Z,75.30
2019-03-16T12:02:38.180Z,74.90
2019-03-16T12:05:09.660Z,74.10
2019-03-16T12:07:38.182Z,74.10
2019-03-16T12:10:14.321Z,73.40
2019-03-16T12:12:42.758Z,72.70
2019-03-16T12:15:13.144Z,72.50
2019-03-16T12:17:41.598Z,72.60
2019-03-16T12:20:12.645Z,71.30
2019-03-16T12:22:42.054Z,71.60
2019-03-16T12:25:11.673Z,72.90
2019-03-16T12:27:40.109Z,71.90
2019-03-16T12:30:10.967Z,71.30
2019-03-16T12:32:39.448Z,71.60
2019-03-16T12:35:09.224Z,71.60
2019-03-16T12:37:37.782Z,71.50
2019-03-16T12:40:09.179Z,72.50
2019-03-16T12:42:39.804Z,72.40
2019-03-16T12:45:16.309Z,72.90
2019-03-16T12:47:45.210Z,73.60
2019-03-16T12:50:14.154Z,74.00
2019-03-16T12:52:42.665Z,74.10
2019-03-16T12:55:12.218Z,73.70
2019-03-16T12:57:40.928Z,73.60
2019-03-16T13:00:15.006Z,71.70
2019-03-16T13:02:43.785Z,72.90
2019-03-16T13:05:12.305Z,72.90
2019-03-16T13:07:40.750Z,74.60
2019-03-16T13:10:18.475Z,73.70
2019-03-16T13:12:46.990Z,73.60
2019-03-16T13:15:15.421Z,73.40
2019-03-16T13:17:45.592Z,72.90
2019-03-16T13:20:15.483Z,71.50
2019-03-16T13:22:44.211Z,72.60
2019-03-16T13:25:12.726Z,72.00
2019-03-16T13:27:41.144Z,70.50
2019-03-16T13:30:17.235Z,70.90
2019-03-16T13:32:45.667Z,71.90
2019-03-16T13:35:14.636Z,72.00
2019-03-16T13:37:43.160Z,72.60
2019-03-16T13:40:17.517Z,73.90
2019-03-16T13:42:45.979Z,73.40
2019-03-16T13:45:14.771Z,73.50
2019-03-16T13:47:43.200Z,72.90
2019-03-16T13:50:16.856Z,72.90
2019-03-16T13:52:45.761Z,73.40
2019-03-16T13:55:14.194Z,73.80
2019-03-16T13:57:42.639Z,74.20
2019-03-16T14:00:14.280Z,73.70
2019-03-16T14:02:42.722Z,74.10
2019-03-16T14:05:11.340Z,73.80
2019-03-16T14:07:40.724Z,72.40
2019-03-16T14:10:14.658Z,73.40
2019-03-16T14:12:43.125Z,72.70
2019-03-16T14:15:11.581Z,73.00
2019-03-16T14:17:40.514Z,71.70
2019-03-16T14:20:16.523Z,71.90
2019-03-16T14:22:45.426Z,71.70
2019-03-16T14:25:14.238Z,72.30
2019-03-16T14:27:42.763Z,72.80
2019-03-16T14:30:35.078Z,70.60
2019-03-16T14:32:52.036Z,71.00
2019-03-16T14:35:20.528Z,71.70
2019-03-16T14:37:48.963Z,72.90
2019-03-16T14:40:17.455Z,72.90
2019-03-16T14:42:46.685Z,72.60
2019-03-16T14:45:16.555Z,72.60
2019-03-16T14:47:45.139Z,72.90
2019-03-16T14:50:16.768Z,72.40
2019-03-16T14:52:45.299Z,73.40
2019-03-16T14:55:13.761Z,74.10
2019-03-16T14:57:42.202Z,74.50
2019-03-16T15:00:15.697Z,74.80
2019-03-16T15:02:46.224Z,74.90
2019-03-16T15:05:14.781Z,75.20
2019-03-16T15:07:43.241Z,73.20
2019-03-16T15:10:16.298Z,69.90
2019-03-16T15:12:44.734Z,71.30
2019-03-16T15:15:20.411Z,71.00
2019-03-16T15:17:48.929Z,70.10
2019-03-16T15:20:17.430Z,71.30
2019-03-16T15:22:45.899Z,71.20
2019-03-16T15:25:14.889Z,71.20
2019-03-16T15:27:43.343Z,71.70
2019-03-16T15:30:16.458Z,72.30
2019-03-16T15:32:44.973Z,73.50
2019-03-16T15:35:13.423Z,72.40
2019-03-16T15:37:41.852Z,72.70
2019-03-16T15:40:15.243Z,73.00
2019-03-16T15:42:43.675Z,72.50
2019-03-16T15:45:23.598Z,69.40
2019-03-16T15:47:52.056Z,70.20
2019-03-16T15:50:20.486Z,68.80
2019-03-16T15:52:48.907Z,68.80
2019-03-16T15:55:17.352Z,69.20
2019-03-16T15:57:45.805Z,67.60
2019-03-16T16:00:17.008Z,66.30
2019-03-16T16:02:45.494Z,66.80
2019-03-16T16:05:14.371Z,67.20
2019-03-16T16:07:43.111Z,65.70
2019-03-16T16:10:13.870Z,64.30
2019-03-16T16:12:42.571Z,62.80
2019-03-16T16:15:12.177Z,58.80
2019-03-16T16:17:40.615Z,58.90
2019-03-16T16:20:15.070Z,57.90
2019-03-16T16:22:43.593Z,57.50
2019-03-16T16:25:13.084Z,56.40
2019-03-16T16:27:41.778Z,57.80
2019-03-16T16:30:15.101Z,59.90
2019-03-16T16:32:43.818Z,61.70
2019-03-16T16:35:14.417Z,63.80
2019-03-16T16:37:43.199Z,67.20
2019-03-16T16:40:13.927Z,68.40
2019-03-16T16:42:42.349Z,69.50
2019-03-16T16:45:12.521Z,69.40
2019-03-16T16:47:40.923Z,70.50
2019-03-16T16:50:12.206Z,71.40
2019-03-16T16:52:40.626Z,70.90
2019-03-16T16:55:09.314Z,72.00
2019-03-16T16:57:37.759Z,71.90
2019-03-16T17:00:20.202Z,71.90
2019-03-16T17:02:48.631Z,72.10
2019-03-16T17:05:17.077Z,72.40
2019-03-16T17:07:45.517Z,72.00
2019-03-16T17:10:16.512Z,72.60
2019-03-16T17:12:45.634Z,72.90
2019-03-16T17:15:17.169Z,72.90
2019-03-16T17:17:45.620Z,73.20
2019-03-16T17:20:15.106Z,73.10
2019-03-16T17:22:43.533Z,72.90
2019-03-16T17:25:13.401Z,73.10
2019-03-16T17:27:41.854Z,73.50
2019-03-16T17:30:24.564Z,72.70
2019-03-16T17:32:53.002Z,73.50
2019-03-16T17:35:21.443Z,73.10
2019-03-16T17:37:50.238Z,73.50
2019-03-16T17:40:18.665Z,73.50
2019-03-16T17:42:47.132Z,73.70
2019-03-16T17:45:15.581Z,73.90
2019-03-16T17:47:44.216Z,74.10
2019-03-16T17:50:16.773Z,74.30
2019-03-16T17:52:48.121Z,74.40
2019-03-16T17:55:18.904Z,74.50
2019-03-16T17:57:47.335Z,74.50
2019-03-16T18:00:17.131Z,75.00
2019-03-16T18:02:51.576Z,75.00
2019-03-16T18:05:16.013Z,75.20
2019-03-16T18:07:44.449Z,75.00
2019-03-16T18:10:14.876Z,75.20
2019-03-16T18:12:43.720Z,75.70
2019-03-16T18:15:22.067Z,76.20
2019-03-16T18:17:50.884Z,76.40
2019-03-16T18:20:19.959Z,76.70
2019-03-16T18:22:48.595Z,76.80
2019-03-16T18:25:17.499Z,76.90
2019-03-16T18:27:46.058Z,77.10
2019-03-16T18:30:18.694Z,77.20
2019-03-16T18:32:47.504Z,77.20
2019-03-16T18:35:16.124Z,77.20
2019-03-16T18:37:44.656Z,77.10
2019-03-16T18:40:17.053Z,77.20
2019-03-16T18:42:45.544Z,77.40
2019-03-16T18:45:25.275Z,77.90
2019-03-16T18:47:53.777Z,77.80
2019-03-16T18:50:22.191Z,77.80
2019-03-16T18:52:50.626Z,78.10
2019-03-16T18:55:19.070Z,78.20
2019-03-16T18:57:47.581Z,78.30
2019-03-16T19:00:17.277Z,78.30
2019-03-16T19:02:45.988Z,78.50
2019-03-16T19:05:14.892Z,78.70
2019-03-16T19:07:43.335Z,78.80
2019-03-16T19:10:13.854Z,79.10
2019-03-16T19:12:42.556Z,79.30
2019-03-16T19:15:15.297Z,79.40
2019-03-16T19:17:43.732Z,79.50
2019-03-16T19:20:13.814Z,79.60
2019-03-16T19:22:42.339Z,79.90
2019-03-16T19:25:16.461Z,79.90
2019-03-16T19:27:44.906Z,79.80
2019-03-16T19:30:18.213Z,79.80
2019-03-16T19:32:46.672Z,79.80
2019-03-16T19:35:15.475Z,79.90
2019-03-16T19:37:43.949Z,80.20
2019-03-16T19:40:14.630Z,80.50
2019-03-16T19:42:43.066Z,81.00
2019-03-16T19:45:12.303Z,81.40
2019-03-16T19:47:40.719Z,81.60
2019-03-16T19:50:12.163Z,81.90
2019-03-16T19:52:40.612Z,82.20
2019-03-16T19:55:10.874Z,82.60
2019-03-16T19:57:40.057Z,83.40
2019-03-16T20:00:17.118Z,83.80
2019-03-16T20:02:51.095Z,84.00
2019-03-16T20:05:15.727Z,84.30
2019-03-16T20:07:44.233Z,84.50
2019-03-16T20:10:14.622Z,84.90
2019-03-16T20:12:43.057Z,85.20
2019-03-16T20:15:13.013Z,85.30
2019-03-16T20:17:41.463Z,85.60
2019-03-16T20:20:11.338Z,86.20
2019-03-16T20:22:39.783Z,86.30
2019-03-16T20:25:08.758Z,86.60
2019-03-16T20:27:37.190Z,86.70
2019-03-16T20:30:08.636Z,86.70
2019-03-16T20:32:37.412Z,86.80
2019-03-16T20:35:08.118Z,87.10
2019-03-16T20:37:36.943Z,87.40
2019-03-16T20:40:08.586Z,87.80
2019-03-16T20:42:37.219Z,87.90
2019-03-16T20:45:07.469Z,88.10
2019-03-16T20:47:36.058Z,88.40
2019-03-16T20:50:07.305Z,88.70
2019-03-16T20:52:35.778Z,88.80
2019-03-16T20:55:05.956Z,89.20
2019-03-16T20:57:34.394Z,89.20
2019-03-16T21:00:03.495Z,89.60
2019-03-16T21:02:31.957Z,89.70
2019-03-16T21:05:00.392Z,90.10
2019-03-16T21:07:28.809Z,90.20
2019-03-16T21:09:57.238Z,90.50
2019-03-16T21:12:25.690Z,90.80
2019-03-16T21:14:54.196Z,90.90
2019-03-16T21:17:22.949Z,90.90
2019-03-16T21:19:52.284Z,91.30
2019-03-16T21:22:20.713Z,91.20
2019-03-16T21:24:49.150Z,91.20
2019-03-16T21:27:17.594Z,91.10
2019-03-16T21:29:46.028Z,91.20
2019-03-16T21:32:14.469Z,91.30
2019-03-16T21:34:42.893Z,91.30
2019-03-16T21:37:11.320Z,91.60
2019-03-16T21:39:39.778Z,91.90
2019-03-16T21:42:08.191Z,92.20
2019-03-16T21:44:36.676Z,92.60
2019-03-16T21:47:06.536Z,92.70
2019-03-16T21:49:35.216Z,92.60
2019-03-16T21:52:03.728Z,92.80
2019-03-16T21:54:32.186Z,92.70
2019-03-16T21:57:01.000Z,92.70
2019-03-16T21:59:33.341Z,92.60
2019-03-16T22:02:01.621Z,92.50
2019-03-16T22:04:31.038Z,92.60
2019-03-16T22:06:59.793Z,92.70
2019-03-16T22:09:28.286Z,92.70
2019-03-16T22:11:56.899Z,92.60
2019-03-16T22:14:27.139Z,92.90
2019-03-16T22:16:55.811Z,93.20
2019-03-16T22:19:24.297Z,93.50
2019-03-16T22:21:52.739Z,93.60
2019-03-16T22:24:21.182Z,93.50
2019-03-16T22:26:49.881Z,93.60
2019-03-16T22:29:18.346Z,93.60
2019-03-16T22:31:46.788Z,93.80
2019-03-16T22:34:15.238Z,94.10
2019-03-16T22:36:43.708Z,94.40
2019-03-16T22:39:12.129Z,94.40
2019-03-16T22:41:40.576Z,94.40
2019-03-16T22:44:09.008Z,94.70
2019-03-16T22:46:37.833Z,94.90
2019-03-16T22:49:06.265Z,94.90
2019-03-16T22:51:34.715Z,94.80
2019-03-16T22:54:03.153Z,94.70
2019-03-16T22:56:31.579Z,94.60
2019-03-16T22:59:00.313Z,94.80
2019-03-16T23:01:28.845Z,95.00
2019-03-16T23:04:06.305Z,95.40
2019-03-16T23:06:27.450Z,95.50
2019-03-16T23:08:55.885Z,95.50
2019-03-16T23:11:24.325Z,95.50
2019-03-16T23:13:52.754Z,95.50
2019-03-16T23:16:21.200Z,95.60
2019-03-16T23:18:49.709Z,95.70
2019-03-16T23:21:18.177Z,95.60
2019-03-16T23:23:46.679Z,95.60
2019-03-16T23:26:15.222Z,95.60
2019-03-16T23:28:43.677Z,95.50
2019-03-16T23:31:12.593Z,95.60
2019-03-16T23:33:41.377Z,95.60
2019-03-16T23:36:10.190Z,95.70
2019-03-16T23:38:38.625Z,95.70
2019-03-16T23:41:07.467Z,95.80
2019-03-16T23:43:35.878Z,95.90
2019-03-16T23:46:04.330Z,95.90
2019-03-16T23:48:33.096Z,96.00
2019-03-16T23:51:01.526Z,96.30
2019-03-16T23:53:29.974Z,96.50
2019-03-16T23:55:58.416Z,96.40
2019-03-16T23:58:26.840Z,96.40
